Weather reports worldwide

Advertisment
Plasencia, Spain (8252): temperature & dewpoint: 07.08.2020 01:00:00 - 13.08.2020 01:00:00 (CEST)Plasencia, Spain (8252): wind speed & gusts: 07.08.2020 01:00:00 - 13.08.2020 01:00:00 (CEST)Plasencia, Spain (8252): wind direction: 07.08.2020 01:00:00 - 13.08.2020 01:00:00 (CEST)Plasencia, Spain (8252): precipitation: 07.08.2020 01:00:00 - 13.08.2020 01:00:00 (CEST)
Date & Time tt [°C] td [°C] ff [km/h] ff [kn] fx [km/h] fx [kn] dd rr [mm]
13.08.2020 01:00:00 - - - - - - - -
13.08.2020 00:00:00 - - - - - - - -
12.08.2020 23:00:00 - - - - - - - -
12.08.2020 22:00:00 - - - - - - - -
12.08.2020 21:00:00 - - - - - - - -
12.08.2020 20:00:00 - - - - - - - -
12.08.2020 19:00:00 - - - - - - - -
12.08.2020 18:00:00 - - - - - - - -
12.08.2020 17:00:00 - - - - - - - -
12.08.2020 16:00:00 - - - - - - - -
12.08.2020 15:00:00 - - - - - - - -
12.08.2020 14:00:00 - - - - - - - -
12.08.2020 13:00:00 - - - - - - - -
12.08.2020 12:00:00 - - - - - - - -
12.08.2020 11:00:00 - - - - - - - -
12.08.2020 10:00:00 - - - - - - - -
12.08.2020 09:00:00 - - - - - - - -
12.08.2020 08:00:00 - - - - - - - -
12.08.2020 07:00:00 - - - - - - - -
12.08.2020 06:00:00 - - - - - - - -
12.08.2020 05:00:00 - - - - - - - -
12.08.2020 04:00:00 - - - - - - - -
12.08.2020 03:00:00 - - - - - - - -
12.08.2020 02:00:00 - - - - - - - -
12.08.2020 01:00:00 - - - - - - - -
12.08.2020 00:00:00 - - - - - - - -
11.08.2020 23:00:00 - - - - - - - -
11.08.2020 22:00:00 - - - - - - - -
11.08.2020 21:00:00 - - - - - - - -
11.08.2020 20:00:00 - - - - - - - -
11.08.2020 19:00:00 - - - - - - - -
11.08.2020 18:00:00 - - - - - - - -
11.08.2020 17:00:00 - - - - - - - -
11.08.2020 16:00:00 - - - - - - - -
11.08.2020 15:00:00 - - - - - - - -
11.08.2020 14:00:00 - - - - - - - -
11.08.2020 13:00:00 - - - - - - - -
11.08.2020 12:00:00 - - - - - - - -
11.08.2020 11:00:00 - - - - - - - -
11.08.2020 10:00:00 - - - - - - - -
11.08.2020 09:00:00 - - - - - - - -
11.08.2020 08:00:00 - - - - - - - -
11.08.2020 07:00:00 - - - - - - - -
11.08.2020 06:00:00 - - - - - - - -
11.08.2020 05:00:00 - - - - - - - -
11.08.2020 04:00:00 - - - - - - - -
11.08.2020 03:00:00 - - - - - - - -
11.08.2020 02:00:00 - - - - - - - -
11.08.2020 01:00:00 - - - - - - - -
11.08.2020 00:00:00 - - - - - - - -
10.08.2020 23:00:00 - - - - - - - -
10.08.2020 22:00:00 - - - - - - - -
10.08.2020 21:00:00 - - - - - - - -
10.08.2020 20:00:00 - - - - - - - -
10.08.2020 19:00:00 - - - - - - - -
10.08.2020 18:00:00 - - - - - - - -
10.08.2020 17:00:00 - - - - - - - -
10.08.2020 16:00:00 - - - - - - - -
10.08.2020 15:00:00 - - - - - - - -
10.08.2020 14:00:00 - - - - - - - -
10.08.2020 13:00:00 - - - - - - - -
10.08.2020 12:00:00 - - - - - - - -
10.08.2020 11:00:00 - - - - - - - -
10.08.2020 10:00:00 - - - - - - - -
10.08.2020 09:00:00 - - - - - - - -
10.08.2020 08:00:00 - - - - - - - -
10.08.2020 07:00:00 20,6 14,2 0 0 5 3 SSE 0,0
10.08.2020 06:00:00 21,4 13,4 2 1 5 3 W 0,0
10.08.2020 05:00:00 22,4 13,9 0 0 4 2 N 0,0
10.08.2020 04:00:00 23,6 13,8 0 0 10 5 ENE 0,0
10.08.2020 03:00:00 24,7 13,6 4 2 14 7 WNW 0,0
10.08.2020 02:00:00 26,0 12,1 0 0 5 3 WSW -
10.08.2020 01:00:00 27,0 13,0 3 2 13 7 W 0,0
10.08.2020 00:00:00 28,6 14,0 5 3 16 9 W 0,0
09.08.2020 23:00:00 29,4 15,2 3 2 16 8 NW 0,0
09.08.2020 22:00:00 31,0 15,8 5 3 17 9 WNW 0,0
09.08.2020 21:00:00 32,8 17,5 7 4 21 11 W 0,0
09.08.2020 20:00:00 34,4 18,0 6 3 21 11 W -
09.08.2020 19:00:00 36,1 20,0 6 3 24 13 WNW 0,0
09.08.2020 18:00:00 37,2 20,5 7 4 24 13 WNW 0,0
09.08.2020 17:00:00 36,9 20,7 8 5 26 14 WNW 0,0
09.08.2020 16:00:00 36,3 20,5 9 5 26 14 WNW 0,0
09.08.2020 15:00:00 35,8 20,9 6 3 23 13 NW 0,0
09.08.2020 14:00:00 34,9 20,1 9 5 25 13 WNW -
09.08.2020 13:00:00 34,0 21,1 6 3 19 11 NW 0,0
09.08.2020 12:00:00 32,7 19,9 3 2 11 6 WNW 0,0
09.08.2020 11:00:00 29,7 19,1 1 1 6 4 SSW 0,0
09.08.2020 10:00:00 27,0 18,8 1 0 7 4 E 0,0
09.08.2020 09:00:00 24,1 18,1 3 1 10 5 E 0,0
09.08.2020 08:00:00 23,4 17,1 4 2 12 7 E -
09.08.2020 07:00:00 23,6 16,6 0 0 0 0 N 0,0
09.08.2020 06:00:00 24,1 16,6 0 0 5 3 N 0,0
09.08.2020 05:00:00 24,4 16,6 0 0 0 0 N 0,0
09.08.2020 04:00:00 25,9 16,5 0 0 8 4 N 0,0
09.08.2020 03:00:00 26,8 16,7 3 2 7 4 E 0,0
09.08.2020 02:00:00 27,9 16,8 0 0 7 4 N -
09.08.2020 01:00:00 29,2 17,4 4 2 11 6 W 0,0
09.08.2020 00:00:00 30,1 17,5 2 1 11 6 W 0,0
08.08.2020 23:00:00 31,2 18,2 5 3 10 5 E 0,0
08.08.2020 22:00:00 32,7 18,1 0 0 11 6 NNW 0,0
08.08.2020 21:00:00 34,3 19,6 3 2 14 7 NW 0,0
08.08.2020 20:00:00 35,4 20,1 6 3 19 11 W -
08.08.2020 19:00:00 36,2 21,3 6 3 21 11 W 0,0
08.08.2020 18:00:00 36,3 21,3 6 3 21 11 W 0,0
08.08.2020 17:00:00 34,8 22,1 7 4 27 15 W 0,0
08.08.2020 16:00:00 33,9 19,6 10 5 23 13 W 0,0
08.08.2020 15:00:00 36,7 20,5 3 2 19 11 S 0,0
08.08.2020 14:00:00 36,2 21,3 4 2 14 8 SE -
08.08.2020 13:00:00 34,2 20,9 3 1 13 7 SSE 0,0
08.08.2020 12:00:00 31,8 20,7 3 2 14 8 SSE 0,0
08.08.2020 11:00:00 30,3 20,5 5 3 17 9 ESE 0,0
08.08.2020 10:00:00 28,1 19,6 4 2 12 6 ESE 0,0
08.08.2020 09:00:00 25,2 16,9 1 0 8 4 E 0,0
08.08.2020 08:00:00 24,6 16,0 3 2 8 4 ESE -
08.08.2020 07:00:00 24,9 16,3 4 2 13 7 E 0,0
08.08.2020 06:00:00 25,2 16,6 6 3 13 7 E 0,0
08.08.2020 05:00:00 25,7 16,6 4 2 19 10 E 0,0
08.08.2020 04:00:00 26,6 16,6 4 2 8 4 E 0,0
08.08.2020 03:00:00 27,1 16,7 1 0 6 3 SE 0,0
08.08.2020 02:00:00 28,3 16,9 4 2 14 7 ESE -
08.08.2020 01:00:00 29,3 17,5 5 3 10 5 ESE 0,0
08.08.2020 00:00:00 30,3 18,4 3 2 9 5 E 0,0
07.08.2020 23:00:00 32,2 17,7 3 1 10 6 ESE 0,0
07.08.2020 22:00:00 33,7 18,2 4 2 11 6 W 0,0
07.08.2020 21:00:00 35,7 19,6 4 2 15 8 W 0,0
07.08.2020 20:00:00 37,0 20,3 5 3 18 10 NW -
07.08.2020 19:00:00 38,0 21,2 7 4 22 12 W 0,0
07.08.2020 18:00:00 38,9 22,0 5 3 19 10 NW 0,0
07.08.2020 17:00:00 37,5 22,0 8 5 23 12 WNW 0,0
07.08.2020 16:00:00 37,6 22,1 6 3 22 12 WNW 0,0
07.08.2020 15:00:00 37,1 22,1 3 2 16 9 W 0,0
07.08.2020 14:00:00 35,6 20,7 3 2 18 10 WNW -
07.08.2020 13:00:00 34,3 21,0 4 2 16 8 WNW 0,0
07.08.2020 12:00:00 32,2 20,1 5 3 12 7 WSW 0,0
07.08.2020 11:00:00 30,3 19,3 4 2 15 8 E 0,0
07.08.2020 10:00:00 28,0 18,1 4 2 14 7 ESE 0,0
07.08.2020 09:00:00 25,9 16,1 3 2 8 4 E 0,0
07.08.2020 08:00:00 24,6 15,3 3 2 9 5 E -
07.08.2020 07:00:00 25,5 15,3 5 3 10 5 E 0,0
07.08.2020 06:00:00 25,9 15,3 4 2 9 5 E 0,0
07.08.2020 05:00:00 26,5 14,9 4 2 9 5 E 0,0
07.08.2020 04:00:00 27,3 15,6 1 0 4 2 ESE 0,0
07.08.2020 03:00:00 27,3 15,3 0 0 6 3 W 0,0
07.08.2020 02:00:00 29,2 15,0 3 2 14 8 E -
07.08.2020 01:00:00 30,1 15,8 6 3 14 8 E 0,0

tt = temperature
td = dewpoint
ff = wind speed
fx = gusts
dd = wind direction
rr = precipitation

Next stations